sensor_id;sensor_type;location;lat;lon;timestamp;P1;durP1;ratioP1;P2;durP2;ratioP2
43620;SDS011;29213;50.770;7.298;2022-07-23T00:02:20;9.13;;;7.15;;
43620;SDS011;29213;50.770;7.298;2022-07-23T00:04:45;9.25;;;7.35;;
43620;SDS011;29213;50.770;7.298;2022-07-23T00:07:10;8.77;;;7.40;;
43620;SDS011;29213;50.770;7.298;2022-07-23T00:09:36;9.07;;;6.97;;
43620;SDS011;29213;50.770;7.298;2022-07-23T00:12:01;8.98;;;7.78;;
43620;SDS011;29213;50.770;7.298;2022-07-23T00:14:27;7.97;;;6.97;;
43620;SDS011;29213;50.770;7.298;2022-07-23T00:16:52;8.45;;;7.22;;
43620;SDS011;29213;50.770;7.298;2022-07-23T00:19:17;9.82;;;6.90;;
43620;SDS011;29213;50.770;7.298;2022-07-23T00:21:43;8.45;;;7.40;;
43620;SDS011;29213;50.770;7.298;2022-07-23T00:24:08;9.10;;;7.07;;
43620;SDS011;29213;50.770;7.298;2022-07-23T00:26:34;8.13;;;6.95;;
43620;SDS011;29213;50.770;7.298;2022-07-23T00:28:59;9.05;;;6.82;;
43620;SDS011;29213;50.770;7.298;2022-07-23T00:31:24;8.70;;;7.40;;
43620;SDS011;29213;50.770;7.298;2022-07-23T00:33:50;8.93;;;6.93;;
43620;SDS011;29213;50.770;7.298;2022-07-23T00:36:15;8.98;;;7.25;;
43620;SDS011;29213;50.770;7.298;2022-07-23T00:38:41;8.30;;;7.00;;
43620;SDS011;29213;50.770;7.298;2022-07-23T00:41:06;9.25;;;7.32;;
43620;SDS011;29213;50.770;7.298;2022-07-23T00:43:32;9.45;;;8.02;;
43620;SDS011;29213;50.770;7.298;2022-07-23T00:45:57;10.68;;;7.22;;
43620;SDS011;29213;50.770;7.298;2022-07-23T00:48:23;8.40;;;6.88;;
43620;SDS011;29213;50.770;7.298;2022-07-23T00:50:48;8.32;;;6.80;;
43620;SDS011;29213;50.770;7.298;2022-07-23T00:53:14;8.40;;;7.35;;
43620;SDS011;29213;50.770;7.298;2022-07-23T00:55:40;9.55;;;8.45;;
43620;SDS011;29213;50.770;7.298;2022-07-23T00:58:06;9.63;;;7.68;;
43620;SDS011;29213;50.770;7.298;2022-07-23T01:00:32;8.00;;;6.57;;
43620;SDS011;29213;50.770;7.298;2022-07-23T01:02:57;9.10;;;7.90;;
43620;SDS011;29213;50.770;7.298;2022-07-23T01:05:23;10.00;;;7.57;;
43620;SDS011;29213;50.770;7.298;2022-07-23T01:07:49;9.32;;;7.22;;
43620;SDS011;29213;50.770;7.298;2022-07-23T01:10:15;9.93;;;7.50;;
43620;SDS011;29213;50.770;7.298;2022-07-23T01:12:56;9.13;;;7.63;;
43620;SDS011;29213;50.770;7.298;2022-07-23T01:15:22;9.43;;;7.28;;
43620;SDS011;29213;50.770;7.298;2022-07-23T01:17:48;8.80;;;7.28;;
43620;SDS011;29213;50.770;7.298;2022-07-23T01:20:14;8.52;;;7.32;;
43620;SDS011;29213;50.770;7.298;2022-07-23T01:22:39;9.80;;;7.70;;
43620;SDS011;29213;50.770;7.298;2022-07-23T01:25:05;9.57;;;7.70;;
43620;SDS011;29213;50.770;7.298;2022-07-23T01:27:31;8.48;;;7.35;;
43620;SDS011;29213;50.770;7.298;2022-07-23T01:29:56;8.23;;;6.68;;
43620;SDS011;29213;50.770;7.298;2022-07-23T01:32:22;9.32;;;7.25;;
43620;SDS011;29213;50.770;7.298;2022-07-23T01:34:47;8.63;;;7.72;;
43620;SDS011;29213;50.770;7.298;2022-07-23T01:37:13;9.65;;;8.07;;
43620;SDS011;29213;50.770;7.298;2022-07-23T01:39:38;10.38;;;7.95;;
43620;SDS011;29213;50.770;7.298;2022-07-23T01:42:04;11.07;;;8.20;;
43620;SDS011;29213;50.770;7.298;2022-07-23T01:44:30;8.20;;;7.05;;
43620;SDS011;29213;50.770;7.298;2022-07-23T01:46:55;8.95;;;6.90;;
43620;SDS011;29213;50.770;7.298;2022-07-23T01:49:21;10.98;;;7.97;;
43620;SDS011;29213;50.770;7.298;2022-07-23T01:51:47;11.30;;;8.23;;
43620;SDS011;29213;50.770;7.298;2022-07-23T01:54:31;9.68;;;7.35;;
43620;SDS011;29213;50.770;7.298;2022-07-23T01:56:58;9.18;;;7.80;;
43620;SDS011;29213;50.770;7.298;2022-07-23T01:59:24;8.40;;;7.35;;
43620;SDS011;29213;50.770;7.298;2022-07-23T02:01:49;9.15;;;7.13;;
43620;SDS011;29213;50.770;7.298;2022-07-23T02:04:18;9.25;;;7.88;;
43620;SDS011;29213;50.770;7.298;2022-07-23T02:06:44;8.68;;;7.55;;
43620;SDS011;29213;50.770;7.298;2022-07-23T02:09:10;9.38;;;7.72;;
43620;SDS011;29213;50.770;7.298;2022-07-23T02:11:36;10.05;;;8.10;;
43620;SDS011;29213;50.770;7.298;2022-07-23T02:14:02;10.00;;;8.32;;
43620;SDS011;29213;50.770;7.298;2022-07-23T02:16:27;9.57;;;8.23;;
43620;SDS011;29213;50.770;7.298;2022-07-23T02:18:53;9.63;;;7.90;;
43620;SDS011;29213;50.770;7.298;2022-07-23T02:21:18;10.18;;;8.15;;
43620;SDS011;29213;50.770;7.298;2022-07-23T02:23:44;11.32;;;7.70;;
43620;SDS011;29213;50.770;7.298;2022-07-23T02:26:09;11.93;;;9.15;;
43620;SDS011;29213;50.770;7.298;2022-07-23T02:28:35;10.13;;;8.35;;
43620;SDS011;29213;50.770;7.298;2022-07-23T02:31:00;11.80;;;8.38;;
43620;SDS011;29213;50.770;7.298;2022-07-23T02:33:25;11.57;;;8.52;;
43620;SDS011;29213;50.770;7.298;2022-07-23T02:35:51;11.43;;;9.35;;
43620;SDS011;29213;50.770;7.298;2022-07-23T02:38:16;10.48;;;8.90;;
43620;SDS011;29213;50.770;7.298;2022-07-23T02:40:42;11.45;;;9.52;;
43620;SDS011;29213;50.770;7.298;2022-07-23T02:43:07;10.20;;;8.40;;
43620;SDS011;29213;50.770;7.298;2022-07-23T02:45:33;11.13;;;9.02;;
43620;SDS011;29213;50.770;7.298;2022-07-23T02:47:58;11.55;;;9.55;;
43620;SDS011;29213;50.770;7.298;2022-07-23T02:50:23;11.93;;;9.88;;
43620;SDS011;29213;50.770;7.298;2022-07-23T02:52:49;11.43;;;8.95;;
43620;SDS011;29213;50.770;7.298;2022-07-23T02:55:14;12.32;;;8.55;;
43620;SDS011;29213;50.770;7.298;2022-07-23T02:57:40;12.75;;;9.48;;
43620;SDS011;29213;50.770;7.298;2022-07-23T03:00:05;11.27;;;9.38;;
43620;SDS011;29213;50.770;7.298;2022-07-23T03:19:22;13.52;;;11.00;;
43620;SDS011;29213;50.770;7.298;2022-07-23T03:22:08;11.38;;;9.30;;
43620;SDS011;29213;50.770;7.298;2022-07-23T03:24:54;10.23;;;8.40;;
43620;SDS011;29213;50.770;7.298;2022-07-23T03:27:39;9.88;;;8.73;;
43620;SDS011;29213;50.770;7.298;2022-07-23T03:30:25;11.93;;;9.75;;
43620;SDS011;29213;50.770;7.298;2022-07-23T03:33:11;13.32;;;10.13;;
43620;SDS011;29213;50.770;7.298;2022-07-23T03:35:57;11.48;;;9.48;;
43620;SDS011;29213;50.770;7.298;2022-07-23T03:38:42;11.23;;;9.73;;
43620;SDS011;29213;50.770;7.298;2022-07-23T03:41:29;10.57;;;9.43;;
43620;SDS011;29213;50.770;7.298;2022-07-23T03:44:15;10.60;;;8.93;;
43620;SDS011;29213;50.770;7.298;2022-07-23T03:47:00;10.93;;;8.73;;
43620;SDS011;29213;50.770;7.298;2022-07-23T03:49:46;11.52;;;9.35;;
43620;SDS011;29213;50.770;7.298;2022-07-23T03:52:31;11.63;;;9.82;;
43620;SDS011;29213;50.770;7.298;2022-07-23T03:55:17;11.98;;;9.80;;
43620;SDS011;29213;50.770;7.298;2022-07-23T03:58:03;12.50;;;9.95;;
43620;SDS011;29213;50.770;7.298;2022-07-23T04:00:49;11.13;;;9.38;;
43620;SDS011;29213;50.770;7.298;2022-07-23T04:03:34;11.35;;;9.50;;
43620;SDS011;29213;50.770;7.298;2022-07-23T04:06:20;10.88;;;8.40;;
43620;SDS011;29213;50.770;7.298;2022-07-23T04:09:06;11.10;;;8.85;;
43620;SDS011;29213;50.770;7.298;2022-07-23T04:11:51;10.52;;;8.77;;
43620;SDS011;29213;50.770;7.298;2022-07-23T04:14:37;11.20;;;9.57;;
43620;SDS011;29213;50.770;7.298;2022-07-23T04:17:23;11.45;;;8.80;;
43620;SDS011;29213;50.770;7.298;2022-07-23T04:20:09;11.50;;;9.30;;
43620;SDS011;29213;50.770;7.298;2022-07-23T04:22:55;10.98;;;9.10;;
43620;SDS011;29213;50.770;7.298;2022-07-23T04:25:41;10.68;;;9.13;;
43620;SDS011;29213;50.770;7.298;2022-07-23T04:28:26;11.07;;;9.43;;
43620;SDS011;29213;50.770;7.298;2022-07-23T04:31:12;11.00;;;9.25;;
43620;SDS011;29213;50.770;7.298;2022-07-23T04:33:58;11.95;;;9.40;;
43620;SDS011;29213;50.770;7.298;2022-07-23T04:36:44;11.73;;;9.25;;
43620;SDS011;29213;50.770;7.298;2022-07-23T04:39:29;11.68;;;10.10;;
43620;SDS011;29213;50.770;7.298;2022-07-23T04:42:16;10.55;;;8.63;;
43620;SDS011;29213;50.770;7.298;2022-07-23T04:45:01;11.88;;;9.43;;
43620;SDS011;29213;50.770;7.298;2022-07-23T04:47:49;11.50;;;9.05;;
43620;SDS011;29213;50.770;7.298;2022-07-23T04:50:34;11.20;;;9.18;;
43620;SDS011;29213;50.770;7.298;2022-07-23T04:53:20;10.50;;;9.40;;
43620;SDS011;29213;50.770;7.298;2022-07-23T04:56:06;11.73;;;9.27;;
43620;SDS011;29213;50.770;7.298;2022-07-23T04:58:52;10.43;;;9.20;;
43620;SDS011;29213;50.770;7.298;2022-07-23T05:01:38;12.05;;;9.43;;
43620;SDS011;29213;50.770;7.298;2022-07-23T05:04:23;11.02;;;8.82;;
43620;SDS011;29213;50.770;7.298;2022-07-23T05:07:09;12.45;;;10.32;;
43620;SDS011;29213;50.770;7.298;2022-07-23T05:09:55;12.40;;;10.32;;
43620;SDS011;29213;50.770;7.298;2022-07-23T05:12:40;14.52;;;11.23;;
43620;SDS011;29213;50.770;7.298;2022-07-23T05:15:26;12.38;;;10.68;;
43620;SDS011;29213;50.770;7.298;2022-07-23T05:18:11;14.10;;;11.00;;
43620;SDS011;29213;50.770;7.298;2022-07-23T05:20:57;13.13;;;10.98;;
43620;SDS011;29213;50.770;7.298;2022-07-23T05:23:43;16.02;;;11.82;;
43620;SDS011;29213;50.770;7.298;2022-07-23T05:26:28;15.63;;;13.00;;
43620;SDS011;29213;50.770;7.298;2022-07-23T05:29:14;14.40;;;11.35;;
43620;SDS011;29213;50.770;7.298;2022-07-23T05:31:59;17.45;;;13.10;;
43620;SDS011;29213;50.770;7.298;2022-07-23T05:34:45;16.20;;;12.70;;
43620;SDS011;29213;50.770;7.298;2022-07-23T05:37:31;15.68;;;13.10;;
43620;SDS011;29213;50.770;7.298;2022-07-23T05:40:16;16.50;;;13.32;;
43620;SDS011;29213;50.770;7.298;2022-07-23T05:43:02;15.30;;;12.35;;
43620;SDS011;29213;50.770;7.298;2022-07-23T05:45:48;19.70;;;14.05;;
43620;SDS011;29213;50.770;7.298;2022-07-23T05:48:34;18.13;;;14.30;;
43620;SDS011;29213;50.770;7.298;2022-07-23T05:51:20;16.75;;;12.93;;
43620;SDS011;29213;50.770;7.298;2022-07-23T05:54:07;15.75;;;12.25;;
43620;SDS011;29213;50.770;7.298;2022-07-23T05:56:52;14.60;;;11.88;;
43620;SDS011;29213;50.770;7.298;2022-07-23T05:59:38;17.05;;;13.82;;
43620;SDS011;29213;50.770;7.298;2022-07-23T06:02:24;15.85;;;12.45;;
43620;SDS011;29213;50.770;7.298;2022-07-23T06:05:10;15.15;;;12.27;;
43620;SDS011;29213;50.770;7.298;2022-07-23T06:07:55;13.55;;;10.65;;
43620;SDS011;29213;50.770;7.298;2022-07-23T06:10:41;15.75;;;10.82;;
43620;SDS011;29213;50.770;7.298;2022-07-23T06:13:27;12.27;;;10.30;;
43620;SDS011;29213;50.770;7.298;2022-07-23T06:16:12;12.15;;;9.93;;
43620;SDS011;29213;50.770;7.298;2022-07-23T06:18:58;13.07;;;10.10;;
43620;SDS011;29213;50.770;7.298;2022-07-23T06:21:44;14.18;;;10.05;;
43620;SDS011;29213;50.770;7.298;2022-07-23T06:24:29;13.30;;;10.80;;
43620;SDS011;29213;50.770;7.298;2022-07-23T06:27:15;13.13;;;10.80;;
43620;SDS011;29213;50.770;7.298;2022-07-23T06:30:01;12.85;;;10.18;;
43620;SDS011;29213;50.770;7.298;2022-07-23T06:32:47;13.25;;;10.07;;
43620;SDS011;29213;50.770;7.298;2022-07-23T06:35:33;12.93;;;9.73;;
43620;SDS011;29213;50.770;7.298;2022-07-23T06:38:19;12.73;;;10.30;;
43620;SDS011;29213;50.770;7.298;2022-07-23T06:41:04;14.35;;;10.45;;
43620;SDS011;29213;50.770;7.298;2022-07-23T06:43:50;17.40;;;10.98;;
43620;SDS011;29213;50.770;7.298;2022-07-23T06:46:36;12.57;;;9.48;;
43620;SDS011;29213;50.770;7.298;2022-07-23T06:49:21;12.50;;;9.80;;
43620;SDS011;29213;50.770;7.298;2022-07-23T06:52:07;13.77;;;10.85;;
43620;SDS011;29213;50.770;7.298;2022-07-23T06:54:53;15.57;;;11.32;;
43620;SDS011;29213;50.770;7.298;2022-07-23T06:57:39;12.77;;;9.60;;
43620;SDS011;29213;50.770;7.298;2022-07-23T07:00:24;10.65;;;8.32;;
43620;SDS011;29213;50.770;7.298;2022-07-23T07:03:12;14.65;;;9.82;;
43620;SDS011;29213;50.770;7.298;2022-07-23T07:05:57;10.15;;;7.93;;
43620;SDS011;29213;50.770;7.298;2022-07-23T07:08:43;10.32;;;8.27;;
43620;SDS011;29213;50.770;7.298;2022-07-23T07:11:29;9.52;;;7.53;;
43620;SDS011;29213;50.770;7.298;2022-07-23T07:14:14;9.27;;;7.53;;
43620;SDS011;29213;50.770;7.298;2022-07-23T07:17:00;9.48;;;6.97;;
43620;SDS011;29213;50.770;7.298;2022-07-23T07:19:46;11.25;;;7.63;;
43620;SDS011;29213;50.770;7.298;2022-07-23T07:22:31;9.05;;;6.55;;
43620;SDS011;29213;50.770;7.298;2022-07-23T07:25:17;10.02;;;6.90;;
43620;SDS011;29213;50.770;7.298;2022-07-23T07:28:03;10.30;;;7.53;;
43620;SDS011;29213;50.770;7.298;2022-07-23T07:30:48;8.35;;;6.10;;
43620;SDS011;29213;50.770;7.298;2022-07-23T07:33:34;8.32;;;5.72;;
43620;SDS011;29213;50.770;7.298;2022-07-23T07:36:20;9.13;;;5.93;;
43620;SDS011;29213;50.770;7.298;2022-07-23T07:39:06;7.00;;;5.22;;
43620;SDS011;29213;50.770;7.298;2022-07-23T07:41:52;7.10;;;4.95;;
43620;SDS011;29213;50.770;7.298;2022-07-23T07:44:37;7.80;;;4.85;;
43620;SDS011;29213;50.770;7.298;2022-07-23T07:47:23;6.65;;;4.78;;
43620;SDS011;29213;50.770;7.298;2022-07-23T07:50:09;7.00;;;4.95;;
43620;SDS011;29213;50.770;7.298;2022-07-23T07:52:55;7.57;;;5.05;;
43620;SDS011;29213;50.770;7.298;2022-07-23T07:55:41;7.25;;;5.03;;
43620;SDS011;29213;50.770;7.298;2022-07-23T07:58:26;5.97;;;4.68;;
43620;SDS011;29213;50.770;7.298;2022-07-23T08:01:12;6.30;;;4.28;;
43620;SDS011;29213;50.770;7.298;2022-07-23T08:03:57;7.13;;;5.05;;
43620;SDS011;29213;50.770;7.298;2022-07-23T08:06:43;6.00;;;4.30;;
43620;SDS011;29213;50.770;7.298;2022-07-23T08:09:29;7.13;;;4.20;;
43620;SDS011;29213;50.770;7.298;2022-07-23T08:12:14;5.50;;;3.50;;
43620;SDS011;29213;50.770;7.298;2022-07-23T08:15:00;5.88;;;3.92;;
43620;SDS011;29213;50.770;7.298;2022-07-23T08:17:46;6.22;;;3.90;;
43620;SDS011;29213;50.770;7.298;2022-07-23T08:20:32;4.97;;;3.67;;
43620;SDS011;29213;50.770;7.298;2022-07-23T08:23:18;7.43;;;4.50;;
43620;SDS011;29213;50.770;7.298;2022-07-23T08:26:04;6.32;;;3.78;;
43620;SDS011;29213;50.770;7.298;2022-07-23T08:28:50;5.95;;;3.95;;
43620;SDS011;29213;50.770;7.298;2022-07-23T08:31:36;5.78;;;3.97;;
43620;SDS011;29213;50.770;7.298;2022-07-23T08:34:21;5.57;;;3.60;;
43620;SDS011;29213;50.770;7.298;2022-07-23T08:37:07;7.53;;;4.10;;
43620;SDS011;29213;50.770;7.298;2022-07-23T08:39:53;6.03;;;3.83;;
43620;SDS011;29213;50.770;7.298;2022-07-23T08:42:38;4.65;;;3.28;;
43620;SDS011;29213;50.770;7.298;2022-07-23T08:45:25;4.78;;;3.50;;
43620;SDS011;29213;50.770;7.298;2022-07-23T08:48:16;6.55;;;3.70;;
43620;SDS011;29213;50.770;7.298;2022-07-23T08:51:04;5.63;;;3.38;;
43620;SDS011;29213;50.770;7.298;2022-07-23T08:53:51;5.25;;;3.55;;
43620;SDS011;29213;50.770;7.298;2022-07-23T08:56:37;6.20;;;3.92;;
43620;SDS011;29213;50.770;7.298;2022-07-23T08:59:23;5.45;;;3.55;;
43620;SDS011;29213;50.770;7.298;2022-07-23T09:02:09;5.05;;;2.90;;
43620;SDS011;29213;50.770;7.298;2022-07-23T09:04:54;4.65;;;3.22;;
43620;SDS011;29213;50.770;7.298;2022-07-23T09:10:59;4.38;;;3.10;;
43620;SDS011;29213;50.770;7.298;2022-07-23T09:13:47;6.53;;;3.20;;
43620;SDS011;29213;50.770;7.298;2022-07-23T09:16:34;5.20;;;3.70;;
43620;SDS011;29213;50.770;7.298;2022-07-23T09:19:20;5.43;;;3.00;;
43620;SDS011;29213;50.770;7.298;2022-07-23T09:22:16;4.47;;;2.65;;
43620;SDS011;29213;50.770;7.298;2022-07-23T09:25:07;4.20;;;2.72;;
43620;SDS011;29213;50.770;7.298;2022-07-23T09:27:58;3.65;;;2.67;;
43620;SDS011;29213;50.770;7.298;2022-07-23T09:30:47;4.85;;;3.05;;
43620;SDS011;29213;50.770;7.298;2022-07-23T09:33:36;4.80;;;3.17;;
43620;SDS011;29213;50.770;7.298;2022-07-23T09:36:28;5.95;;;3.67;;
43620;SDS011;29213;50.770;7.298;2022-07-23T09:39:15;5.25;;;3.30;;
43620;SDS011;29213;50.770;7.298;2022-07-23T09:45:02;4.75;;;3.20;;
43620;SDS011;29213;50.770;7.298;2022-07-23T09:47:49;3.85;;;2.30;;
43620;SDS011;29213;50.770;7.298;2022-07-23T09:50:34;3.83;;;2.55;;
43620;SDS011;29213;50.770;7.298;2022-07-23T09:53:23;4.07;;;2.42;;
43620;SDS011;29213;50.770;7.298;2022-07-23T09:56:11;5.88;;;2.80;;
43620;SDS011;29213;50.770;7.298;2022-07-23T09:59:00;4.93;;;3.08;;
43620;SDS011;29213;50.770;7.298;2022-07-23T10:01:53;5.57;;;3.28;;
43620;SDS011;29213;50.770;7.298;2022-07-23T10:04:40;4.60;;;2.45;;
43620;SDS011;29213;50.770;7.298;2022-07-23T10:07:26;4.32;;;2.30;;
43620;SDS011;29213;50.770;7.298;2022-07-23T10:10:15;5.30;;;2.53;;
43620;SDS011;29213;50.770;7.298;2022-07-23T10:13:01;5.45;;;2.72;;
43620;SDS011;29213;50.770;7.298;2022-07-23T10:16:05;3.85;;;2.40;;
43620;SDS011;29213;50.770;7.298;2022-07-23T10:18:52;5.28;;;2.85;;
43620;SDS011;29213;50.770;7.298;2022-07-23T10:21:45;4.07;;;2.20;;
43620;SDS011;29213;50.770;7.298;2022-07-23T10:31:02;4.32;;;2.33;;
43620;SDS011;29213;50.770;7.298;2022-07-23T10:33:54;4.65;;;2.22;;
43620;SDS011;29213;50.770;7.298;2022-07-23T10:36:49;3.78;;;2.00;;
43620;SDS011;29213;50.770;7.298;2022-07-23T10:39:39;4.22;;;2.30;;
43620;SDS011;29213;50.770;7.298;2022-07-23T10:42:24;4.53;;;1.95;;
43620;SDS011;29213;50.770;7.298;2022-07-23T10:45:23;4.32;;;1.67;;
43620;SDS011;29213;50.770;7.298;2022-07-23T10:48:19;3.10;;;1.70;;
43620;SDS011;29213;50.770;7.298;2022-07-23T10:51:12;3.03;;;1.70;;
43620;SDS011;29213;50.770;7.298;2022-07-23T10:54:00;3.72;;;2.10;;
43620;SDS011;29213;50.770;7.298;2022-07-23T11:02:46;3.53;;;2.10;;
43620;SDS011;29213;50.770;7.298;2022-07-23T11:05:44;3.70;;;2.20;;
43620;SDS011;29213;50.770;7.298;2022-07-23T11:08:31;3.42;;;1.95;;
43620;SDS011;29213;50.770;7.298;2022-07-23T11:11:16;3.75;;;2.20;;
43620;SDS011;29213;50.770;7.298;2022-07-23T11:14:02;2.80;;;1.70;;
43620;SDS011;29213;50.770;7.298;2022-07-23T11:16:48;3.47;;;2.00;;
43620;SDS011;29213;50.770;7.298;2022-07-23T11:19:51;3.50;;;1.95;;
43620;SDS011;29213;50.770;7.298;2022-07-23T11:22:55;4.20;;;1.98;;
43620;SDS011;29213;50.770;7.298;2022-07-23T11:25:42;3.10;;;1.60;;
43620;SDS011;29213;50.770;7.298;2022-07-23T11:28:29;3.50;;;1.92;;
43620;SDS011;29213;50.770;7.298;2022-07-23T11:31:18;2.65;;;1.55;;
43620;SDS011;29213;50.770;7.298;2022-07-23T11:43:08;3.28;;;1.90;;
43620;SDS011;29213;50.770;7.298;2022-07-23T11:45:58;3.78;;;1.90;;
43620;SDS011;29213;50.770;7.298;2022-07-23T11:48:45;3.22;;;1.70;;
43620;SDS011;29213;50.770;7.298;2022-07-23T11:51:31;3.35;;;1.90;;
43620;SDS011;29213;50.770;7.298;2022-07-23T11:54:18;3.58;;;2.30;;
43620;SDS011;29213;50.770;7.298;2022-07-23T11:57:03;4.32;;;2.40;;
43620;SDS011;29213;50.770;7.298;2022-07-23T11:59:51;3.75;;;2.20;;
43620;SDS011;29213;50.770;7.298;2022-07-23T12:02:40;4.20;;;2.50;;
43620;SDS011;29213;50.770;7.298;2022-07-23T12:05:31;3.67;;;2.03;;
43620;SDS011;29213;50.770;7.298;2022-07-23T12:08:19;3.83;;;2.00;;
43620;SDS011;29213;50.770;7.298;2022-07-23T12:11:05;3.45;;;1.98;;
43620;SDS011;29213;50.770;7.298;2022-07-23T12:13:57;3.40;;;2.22;;
43620;SDS011;29213;50.770;7.298;2022-07-23T12:16:43;3.72;;;2.20;;
43620;SDS011;29213;50.770;7.298;2022-07-23T12:19:28;3.63;;;1.80;;
43620;SDS011;29213;50.770;7.298;2022-07-23T12:22:15;3.08;;;1.83;;
43620;SDS011;29213;50.770;7.298;2022-07-23T12:25:03;3.55;;;2.10;;
43620;SDS011;29213;50.770;7.298;2022-07-23T12:30:51;3.75;;;2.40;;
43620;SDS011;29213;50.770;7.298;2022-07-23T12:33:39;4.75;;;2.40;;
43620;SDS011;29213;50.770;7.298;2022-07-23T12:36:25;3.97;;;2.20;;
43620;SDS011;29213;50.770;7.298;2022-07-23T12:39:32;3.58;;;2.35;;
43620;SDS011;29213;50.770;7.298;2022-07-23T12:42:18;4.80;;;2.75;;
43620;SDS011;29213;50.770;7.298;2022-07-23T12:47:55;3.95;;;2.50;;
43620;SDS011;29213;50.770;7.298;2022-07-23T12:50:51;4.95;;;2.83;;
43620;SDS011;29213;50.770;7.298;2022-07-23T12:53:41;4.03;;;2.70;;
43620;SDS011;29213;50.770;7.298;2022-07-23T12:56:29;5.43;;;3.60;;
43620;SDS011;29213;50.770;7.298;2022-07-23T13:02:02;4.30;;;2.72;;
43620;SDS011;29213;50.770;7.298;2022-07-23T13:04:48;7.45;;;3.15;;
43620;SDS011;29213;50.770;7.298;2022-07-23T13:07:33;4.78;;;3.20;;
43620;SDS011;29213;50.770;7.298;2022-07-23T13:10:19;5.80;;;3.50;;
43620;SDS011;29213;50.770;7.298;2022-07-23T13:13:09;4.35;;;2.80;;
43620;SDS011;29213;50.770;7.298;2022-07-23T13:15:56;5.32;;;3.20;;
43620;SDS011;29213;50.770;7.298;2022-07-23T13:18:43;4.85;;;3.25;;
43620;SDS011;29213;50.770;7.298;2022-07-23T13:21:28;5.75;;;3.65;;
43620;SDS011;29213;50.770;7.298;2022-07-23T13:24:14;5.53;;;3.72;;
43620;SDS011;29213;50.770;7.298;2022-07-23T13:27:00;5.55;;;3.67;;
43620;SDS011;29213;50.770;7.298;2022-07-23T13:29:46;5.45;;;3.25;;
43620;SDS011;29213;50.770;7.298;2022-07-23T13:32:32;6.68;;;3.40;;
43620;SDS011;29213;50.770;7.298;2022-07-23T13:35:17;5.45;;;3.53;;
43620;SDS011;29213;50.770;7.298;2022-07-23T13:38:04;4.63;;;3.20;;
43620;SDS011;29213;50.770;7.298;2022-07-23T13:40:52;5.07;;;3.25;;
43620;SDS011;29213;50.770;7.298;2022-07-23T13:43:38;6.07;;;3.15;;
43620;SDS011;29213;50.770;7.298;2022-07-23T13:46:24;4.90;;;2.95;;
43620;SDS011;29213;50.770;7.298;2022-07-23T13:49:10;4.90;;;3.10;;
43620;SDS011;29213;50.770;7.298;2022-07-23T13:51:56;5.40;;;3.85;;
43620;SDS011;29213;50.770;7.298;2022-07-23T13:54:42;5.63;;;3.72;;
43620;SDS011;29213;50.770;7.298;2022-07-23T13:57:28;6.20;;;3.80;;
43620;SDS011;29213;50.770;7.298;2022-07-23T14:00:14;5.13;;;3.40;;
43620;SDS011;29213;50.770;7.298;2022-07-23T14:03:00;5.15;;;2.90;;
43620;SDS011;29213;50.770;7.298;2022-07-23T14:05:45;6.53;;;3.22;;
43620;SDS011;29213;50.770;7.298;2022-07-23T14:08:31;4.95;;;3.60;;
43620;SDS011;29213;50.770;7.298;2022-07-23T14:11:17;4.38;;;3.35;;
43620;SDS011;29213;50.770;7.298;2022-07-23T14:14:02;4.22;;;3.10;;
43620;SDS011;29213;50.770;7.298;2022-07-23T14:16:48;4.32;;;3.13;;
43620;SDS011;29213;50.770;7.298;2022-07-23T14:19:34;5.55;;;3.60;;
43620;SDS011;29213;50.770;7.298;2022-07-23T14:22:20;5.85;;;3.70;;
43620;SDS011;29213;50.770;7.298;2022-07-23T14:25:06;4.88;;;3.65;;
43620;SDS011;29213;50.770;7.298;2022-07-23T14:27:53;5.28;;;3.58;;
43620;SDS011;29213;50.770;7.298;2022-07-23T14:30:39;5.70;;;4.07;;
43620;SDS011;29213;50.770;7.298;2022-07-23T14:33:24;5.45;;;3.92;;
43620;SDS011;29213;50.770;7.298;2022-07-23T14:36:10;4.88;;;3.58;;
43620;SDS011;29213;50.770;7.298;2022-07-23T14:38:56;5.32;;;3.80;;
43620;SDS011;29213;50.770;7.298;2022-07-23T14:41:41;4.88;;;3.50;;
43620;SDS011;29213;50.770;7.298;2022-07-23T14:44:27;6.07;;;3.75;;
43620;SDS011;29213;50.770;7.298;2022-07-23T14:47:13;5.78;;;3.65;;
43620;SDS011;29213;50.770;7.298;2022-07-23T14:49:59;4.40;;;3.20;;
43620;SDS011;29213;50.770;7.298;2022-07-23T14:52:45;7.05;;;4.10;;
43620;SDS011;29213;50.770;7.298;2022-07-23T14:55:31;6.40;;;4.72;;
43620;SDS011;29213;50.770;7.298;2022-07-23T14:58:17;4.95;;;2.97;;
43620;SDS011;29213;50.770;7.298;2022-07-23T15:01:03;6.18;;;3.90;;
43620;SDS011;29213;50.770;7.298;2022-07-23T15:03:49;4.40;;;3.50;;
43620;SDS011;29213;50.770;7.298;2022-07-23T15:06:35;5.10;;;3.67;;
43620;SDS011;29213;50.770;7.298;2022-07-23T15:09:20;5.82;;;3.80;;
43620;SDS011;29213;50.770;7.298;2022-07-23T15:12:06;5.68;;;3.50;;
43620;SDS011;29213;50.770;7.298;2022-07-23T15:14:52;4.55;;;3.00;;
43620;SDS011;29213;50.770;7.298;2022-07-23T15:17:38;5.32;;;3.35;;
43620;SDS011;29213;50.770;7.298;2022-07-23T15:20:23;5.53;;;3.00;;
43620;SDS011;29213;50.770;7.298;2022-07-23T15:23:09;5.45;;;2.67;;
43620;SDS011;29213;50.770;7.298;2022-07-23T15:25:55;4.10;;;2.85;;
43620;SDS011;29213;50.770;7.298;2022-07-23T15:28:42;4.45;;;2.95;;
43620;SDS011;29213;50.770;7.298;2022-07-23T15:31:28;5.20;;;3.40;;
43620;SDS011;29213;50.770;7.298;2022-07-23T15:34:14;4.30;;;2.60;;
43620;SDS011;29213;50.770;7.298;2022-07-23T15:37:00;4.22;;;2.90;;
43620;SDS011;29213;50.770;7.298;2022-07-23T15:39:46;4.18;;;2.92;;
43620;SDS011;29213;50.770;7.298;2022-07-23T15:42:32;4.85;;;3.15;;
43620;SDS011;29213;50.770;7.298;2022-07-23T15:45:17;4.53;;;2.80;;
43620;SDS011;29213;50.770;7.298;2022-07-23T15:48:03;5.57;;;3.40;;
43620;SDS011;29213;50.770;7.298;2022-07-23T15:50:49;4.82;;;2.70;;
43620;SDS011;29213;50.770;7.298;2022-07-23T15:53:34;4.90;;;3.35;;
43620;SDS011;29213;50.770;7.298;2022-07-23T15:56:20;5.55;;;3.80;;
43620;SDS011;29213;50.770;7.298;2022-07-23T15:59:07;5.43;;;3.00;;
43620;SDS011;29213;50.770;7.298;2022-07-23T16:01:53;5.13;;;2.97;;
43620;SDS011;29213;50.770;7.298;2022-07-23T16:04:38;4.22;;;2.80;;
43620;SDS011;29213;50.770;7.298;2022-07-23T16:07:24;5.25;;;3.00;;
43620;SDS011;29213;50.770;7.298;2022-07-23T16:10:10;4.22;;;2.60;;
43620;SDS011;29213;50.770;7.298;2022-07-23T16:12:56;4.82;;;3.20;;
43620;SDS011;29213;50.770;7.298;2022-07-23T16:15:42;4.95;;;3.10;;
43620;SDS011;29213;50.770;7.298;2022-07-23T16:18:28;4.50;;;3.05;;
43620;SDS011;29213;50.770;7.298;2022-07-23T16:21:16;4.53;;;2.87;;
43620;SDS011;29213;50.770;7.298;2022-07-23T16:24:02;4.07;;;2.60;;
43620;SDS011;29213;50.770;7.298;2022-07-23T16:26:49;5.20;;;2.70;;
43620;SDS011;29213;50.770;7.298;2022-07-23T16:29:34;4.00;;;2.58;;
43620;SDS011;29213;50.770;7.298;2022-07-23T16:32:20;4.85;;;2.70;;
43620;SDS011;29213;50.770;7.298;2022-07-23T16:35:06;4.05;;;2.67;;
43620;SDS011;29213;50.770;7.298;2022-07-23T16:37:52;4.22;;;2.60;;
43620;SDS011;29213;50.770;7.298;2022-07-23T16:40:37;4.38;;;2.70;;
43620;SDS011;29213;50.770;7.298;2022-07-23T16:43:23;5.10;;;2.40;;
43620;SDS011;29213;50.770;7.298;2022-07-23T16:46:12;4.45;;;2.88;;
43620;SDS011;29213;50.770;7.298;2022-07-23T16:48:58;4.18;;;2.90;;
43620;SDS011;29213;50.770;7.298;2022-07-23T16:51:44;4.80;;;3.10;;
43620;SDS011;29213;50.770;7.298;2022-07-23T16:54:30;4.63;;;2.83;;
43620;SDS011;29213;50.770;7.298;2022-07-23T16:57:16;4.13;;;2.72;;
43620;SDS011;29213;50.770;7.298;2022-07-23T17:00:03;4.32;;;2.50;;
43620;SDS011;29213;50.770;7.298;2022-07-23T17:02:53;4.35;;;2.50;;
43620;SDS011;29213;50.770;7.298;2022-07-23T17:05:39;3.47;;;2.30;;
43620;SDS011;29213;50.770;7.298;2022-07-23T17:08:24;4.13;;;2.60;;